Time;durP1;ratioP1;P1;durP2;ratioP2;P2;SDS_P1;SDS_P2;PMS_P1;PMS_P2;Temp;Humidity;BMP_temperature;BMP_pressure;BME280_temperature;BME280_humidity;BME280_pressure;Samples;Min_cycle;Max_cycle;Signal;HPM_P1;HPM_P2
2021/03/09 00:00:25;;;;;;;15.17;10.97;;;;;;;7.46;100.00;102185.19;1824833;77;938775;-77
2021/03/09 00:02:55;;;;;;;13.60;10.28;;;;;;;7.51;100.00;102192.26;1812758;76;937613;-75
2021/03/09 00:05:25;;;;;;;13.57;11.10;;;;;;;7.36;100.00;102194.59;1824724;77;938665;-75
2021/03/09 00:07:55;;;;;;;14.50;11.37;;;;;;;7.32;100.00;102195.56;1812858;77;937508;-74
2021/03/09 00:10:25;;;;;;;17.07;11.53;;;;;;;7.36;100.00;102194.59;1824829;77;938669;-75
2021/03/09 00:12:55;;;;;;;14.65;11.55;;;;;;;7.45;100.00;102191.80;1812739;77;938962;-75
2021/03/09 00:15:25;;;;;;;13.75;11.10;;;;;;;7.29;100.00;102189.13;1824742;77;938559;-75
2021/03/09 00:17:57;;;;;;;14.73;11.35;;;;;;;7.10;100.00;102187.45;1812656;77;938580;-75
2021/03/09 00:20:27;;;;;;;15.60;11.53;;;;;;;7.07;100.00;102192.03;1824837;77;938569;-78
2021/03/09 00:22:57;;;;;;;14.95;11.57;;;;;;;7.11;100.00;102187.73;1812808;77;938484;-78
2021/03/09 00:25:27;;;;;;;13.90;11.83;;;;;;;7.07;100.00;102192.87;1824843;77;937884;-77
2021/03/09 00:27:56;;;;;;;15.35;12.18;;;;;;;7.05;100.00;102188.14;1812774;77;937630;-77
2021/03/09 00:30:26;;;;;;;14.13;11.07;;;;;;;6.90;100.00;102190.41;1824851;77;937326;-77
2021/03/09 00:32:56;;;;;;;14.67;11.67;;;;;;;6.79;100.00;102189.79;1812974;77;937862;-77
2021/03/09 00:35:27;;;;;;;16.60;12.43;;;;;;;6.72;100.00;102184.31;1824983;77;938621;-75
2021/03/09 00:38:03;;;;;;;15.63;12.50;;;;;;;6.68;100.00;102189.13;1812704;77;938642;-77
2021/03/09 00:40:33;;;;;;;14.20;11.20;;;;;;;6.54;100.00;102197.25;1824874;77;937813;-76
2021/03/09 00:43:02;;;;;;;15.47;11.40;;;;;;;6.22;100.00;102200.57;1813061;77;937853;-76
2021/03/09 00:45:32;;;;;;;15.27;10.97;;;;;;;6.33;100.00;102199.87;1801269;77;938691;-77
2021/03/09 00:48:02;;;;;;;18.02;11.80;;;;;;;6.24;100.00;102208.11;1791283;77;938630;-76
2021/03/09 00:50:32;;;;;;;15.57;11.80;;;;;;;6.24;100.00;102209.48;1811993;77;937770;-75
2021/03/09 00:53:02;;;;;;;15.97;11.93;;;;;;;6.38;100.00;102205.00;1812679;77;937772;-76
2021/03/09 00:55:32;;;;;;;18.53;12.53;;;;;;;6.38;100.00;102205.53;1824906;77;937867;-74
2021/03/09 00:58:03;;;;;;;16.90;12.43;;;;;;;6.50;100.00;102203.77;1783318;77;937975;-76
2021/03/09 01:00:34;;;;;;;15.20;10.73;;;;;;;6.43;100.00;102200.72;1825060;76;937552;-77
2021/03/09 01:03:04;;;;;;;17.12;11.45;;;;;;;6.39;100.00;102199.80;1812058;76;937914;-75
2021/03/09 01:05:34;;;;;;;16.50;11.87;;;;;;;6.44;100.00;102196.90;1825037;77;937544;-76
2021/03/09 01:08:04;;;;;;;17.92;12.40;;;;;;;6.34;100.00;102189.97;1795235;77;937849;-76
2021/03/09 01:10:34;;;;;;;17.77;12.37;;;;;;;6.43;100.00;102192.45;1815154;77;937773;-75
2021/03/09 01:13:04;;;;;;;18.67;12.23;;;;;;;6.46;100.00;102192.83;1812865;77;937930;-77
2021/03/09 01:15:34;;;;;;;15.20;12.13;;;;;;;6.39;100.00;102194.28;1824710;76;937988;-77
2021/03/09 01:18:04;;;;;;;14.80;11.40;;;;;;;6.36;100.00;102188.38;1812794;77;937502;-76
2021/03/09 01:20:34;;;;;;;16.40;11.83;;;;;;;6.47;100.00;102195.06;1825114;77;937776;-75
2021/03/09 01:23:04;;;;;;;16.20;12.03;;;;;;;6.51;100.00;102197.67;1813045;77;937569;-74
2021/03/09 01:25:35;;;;;;;16.43;11.53;;;;;;;6.55;100.00;102201.14;1825026;77;937563;-76
2021/03/09 01:28:06;;;;;;;17.35;13.03;;;;;;;6.55;100.00;102197.53;1813003;77;937564;-76
2021/03/09 01:30:36;;;;;;;15.93;12.50;;;;;;;6.56;100.00;102193.71;1825051;77;935930;-75
2021/03/09 01:33:06;;;;;;;14.25;11.83;;;;;;;6.56;100.00;102200.08;1813012;77;937502;-76
2021/03/09 01:35:36;;;;;;;15.77;12.60;;;;;;;6.53;100.00;102194.17;1825018;77;935871;-76
2021/03/09 01:38:16;;;;;;;17.35;12.23;;;;;;;6.47;100.00;102184.02;1795052;77;937835;-77
2021/03/09 01:40:45;;;;;;;16.20;11.53;;;;;;;6.53;100.00;102189.50;1817446;77;935964;-75
2021/03/09 01:43:17;;;;;;;15.70;12.63;;;;;;;6.57;100.00;102190.73;1824905;77;937735;-74
2021/03/09 01:45:46;;;;;;;17.30;12.57;;;;;;;6.53;100.00;102189.50;1824905;77;935730;-75
2021/03/09 01:48:18;;;;;;;17.90;12.20;;;;;;;6.57;100.00;102192.12;1824842;77;937556;-75
2021/03/09 01:50:49;;;;;;;15.40;12.13;;;;;;;6.52;100.00;102191.95;1824797;77;935756;-75
2021/03/09 01:53:20;;;;;;;17.70;13.00;;;;;;;6.56;100.00;102187.66;1825013;77;937570;-75
2021/03/09 01:55:50;;;;;;;18.43;12.97;;;;;;;6.50;100.00;102189.11;1812873;77;937966;-75
2021/03/09 01:58:22;;;;;;;17.50;12.67;;;;;;;6.51;100.00;102185.26;1824819;77;937740;-74
2021/03/09 02:00:52;;;;;;;16.70;12.63;;;;;;;6.57;100.00;102182.98;1812991;76;937509;-75
2021/03/09 02:03:22;;;;;;;18.80;12.87;;;;;;;6.38;100.00;102184.84;1825000;76;937933;-75
2021/03/09 02:05:52;;;;;;;16.10;12.13;;;;;;;6.31;100.00;102193.19;1812828;77;937828;-77
2021/03/09 02:08:23;;;;;;;17.27;13.03;;;;;;;6.33;100.00;102188.83;1824954;77;937639;-75
2021/03/09 02:10:53;;;;;;;19.10;13.30;;;;;;;6.43;100.00;102185.02;1812845;77;937614;-76
2021/03/09 02:13:37;;;;;;;18.10;12.60;;;;;;;6.44;100.00;102183.09;1824979;77;937506;-76
2021/03/09 02:16:11;;;;;;;15.63;12.05;;;;;;;6.39;100.00;102176.88;1812663;76;937802;-76
2021/03/09 02:18:45;;;;;;;17.37;12.33;;;;;;;6.41;100.00;102173.37;1824815;77;935962;-77
2021/03/09 02:21:44;;;;;;;15.07;12.33;;;;;;;6.53;100.00;102178.46;1824908;77;937885;-76
2021/03/09 02:24:39;;;;;;;17.70;12.77;;;;;;;6.54;100.00;102177.92;1824535;75;937841;-75
2021/03/09 02:27:40;;;;;;;17.73;12.33;;;;;;;6.44;100.00;102177.05;1812823;77;937781;-76
2021/03/09 02:30:19;;;;;;;17.43;12.10;;;;;;;6.48;100.00;102171.38;1812712;77;937595;-76
2021/03/09 02:32:57;;;;;;;16.87;11.90;;;;;;;6.59;100.00;102166.49;1821377;77;937519;-76
2021/03/09 02:35:29;;;;;;;16.70;11.85;;;;;;;6.55;100.00;102173.54;1814677;77;937824;-76
2021/03/09 02:38:02;;;;;;;19.37;12.47;;;;;;;6.53;100.00;102159.13;1812919;77;937715;-77
2021/03/09 02:40:34;;;;;;;17.77;12.03;;;;;;;6.74;100.00;102157.86;1824900;77;937728;-76
2021/03/09 02:43:07;;;;;;;16.48;11.38;;;;;;;6.60;100.00;102157.14;1812984;77;937701;-76
2021/03/09 02:45:38;;;;;;;15.05;11.48;;;;;;;6.72;100.00;102144.80;1824620;77;935840;-74
2021/03/09 02:48:10;;;;;;;14.40;10.87;;;;;;;6.73;100.00;102143.21;1812889;76;937902;-77
2021/03/09 02:50:43;;;;;;;14.07;11.03;;;;;;;6.62;100.00;102148.65;1824777;77;936843;-73
2021/03/09 02:53:16;;;;;;;14.60;11.30;;;;;;;6.59;100.00;102150.48;1812819;77;938757;-75
2021/03/09 02:55:47;;;;;;;14.30;10.80;;;;;;;6.50;100.00;102140.80;1825041;77;936817;-75
2021/03/09 02:58:21;;;;;;;15.00;10.83;;;;;;;6.55;100.00;102146.47;1824795;77;938741;-75
2021/03/09 03:00:53;;;;;;;17.33;12.23;;;;;;;6.42;100.00;102146.62;1813077;76;938878;-75
2021/03/09 03:03:23;;;;;;;14.15;10.75;;;;;;;6.46;100.00;102150.61;1824973;76;938617;-75
2021/03/09 03:05:58;;;;;;;14.83;11.03;;;;;;;6.29;100.00;102158.05;1797972;77;937977;-76
2021/03/09 03:08:30;;;;;;;16.03;12.23;;;;;;;6.31;100.00;102155.08;1815932;77;937539;-76
2021/03/09 03:11:02;;;;;;;15.40;11.93;;;;;;;6.23;100.00;102160.35;1812980;77;944456;-76
2021/03/09 03:13:33;;;;;;;15.60;11.50;;;;;;;6.24;100.00;102159.29;1824838;77;937984;-76
2021/03/09 03:16:06;;;;;;;16.27;12.78;;;;;;;6.15;100.00;102160.63;1812907;77;937467;-76
2021/03/09 03:18:39;;;;;;;13.13;11.37;;;;;;;6.13;100.00;102164.66;1824817;77;935877;-74
2021/03/09 03:21:12;;;;;;;16.50;11.77;;;;;;;6.16;100.00;102162.30;1812770;77;937598;-74
2021/03/09 03:23:43;;;;;;;17.37;11.97;;;;;;;6.18;100.00;102159.33;1825004;77;936065;-76
2021/03/09 03:26:14;;;;;;;14.80;10.93;;;;;;;6.04;100.00;102157.20;1813050;77;937437;-76
2021/03/09 03:28:48;;;;;;;15.63;11.00;;;;;;;5.85;100.00;102156.78;1824937;77;935933;-76
2021/03/09 03:31:19;;;;;;;17.00;11.63;;;;;;;5.80;100.00;102156.59;1824963;77;937681;-77
2021/03/09 03:33:51;;;;;;;15.07;11.90;;;;;;;5.72;100.00;102156.34;1824853;77;935974;-76
2021/03/09 03:36:22;;;;;;;15.73;12.37;;;;;;;5.81;100.00;102159.14;1825030;77;937566;-76
2021/03/09 03:38:52;;;;;;;16.12;12.18;;;;;;;5.94;100.00;102156.86;1812738;77;937920;-77
2021/03/09 03:41:23;;;;;;;17.23;11.43;;;;;;;5.83;100.00;102157.00;1824940;77;937536;-76
2021/03/09 03:43:53;;;;;;;14.53;11.97;;;;;;;5.50;100.00;102157.20;1812980;76;938219;-76
2021/03/09 03:46:23;;;;;;;15.58;12.65;;;;;;;5.44;100.00;102163.58;1825375;76;937817;-76
2021/03/09 03:48:53;;;;;;;16.80;12.27;;;;;;;5.53;100.00;102166.08;1812978;76;937757;-77
2021/03/09 03:51:43;;;;;;;17.70;14.00;;;;;;;5.68;100.00;102170.25;1729835;82;935657;-77
2021/03/09 03:54:20;;;;;;;16.10;11.43;;;;;;;5.40;100.00;102176.63;1718871;82;937636;-75
2021/03/09 03:56:54;;;;;;;17.17;11.30;;;;;;;4.88;100.00;102175.74;1718993;82;937957;-76
2021/03/09 03:59:27;;;;;;;15.93;11.80;;;;;;;4.64;100.00;102190.20;1730407;82;937794;-74
2021/03/09 04:01:57;;;;;;;17.65;12.93;;;;;;;4.44;100.00;102195.72;1718914;80;937775;-75
2021/03/09 04:04:30;;;;;;;16.33;12.47;;;;;;;4.44;100.00;102195.72;1730433;82;937701;-75
2021/03/09 04:07:00;;;;;;;17.03;12.63;;;;;;;4.42;100.00;102195.59;1719166;82;937709;-75
2021/03/09 04:09:31;;;;;;;18.33;12.57;;;;;;;4.44;100.00;102194.34;1730318;82;938779;-75
2021/03/09 04:12:02;;;;;;;17.95;12.75;;;;;;;4.39;100.00;102191.91;1718918;82;938793;-74
2021/03/09 04:14:34;;;;;;;22.10;13.70;;;;;;;4.35;100.00;102195.61;1730656;82;938828;-76
2021/03/09 04:17:05;;;;;;;18.65;13.35;;;;;;;4.15;100.00;102193.36;1719070;82;938608;-76
2021/03/09 04:19:37;;;;;;;20.97;14.87;;;;;;;4.11;100.00;102199.81;1727603;81;936926;-76
2021/03/09 04:22:08;;;;;;;20.52;15.38;;;;;;;4.21;100.00;102202.68;1709130;81;938800;-77
2021/03/09 04:24:38;;;;;;;22.53;16.07;;;;;;;4.07;100.00;102210.91;1813762;77;936781;-75
2021/03/09 04:27:20;;;;;;;20.90;16.77;;;;;;;4.20;100.00;102210.08;1816281;77;938987;-77
2021/03/09 04:29:41;;;;;;;22.20;15.90;;;;;;;4.16;100.00;102207.44;1826052;77;936771;-77
2021/03/09 04:32:11;;;;;;;23.27;16.47;;;;;;;4.31;100.00;102206.72;1816125;77;937733;-77
2021/03/09 04:34:41;;;;;;;25.60;17.67;;;;;;;4.44;100.00;102202.59;1828500;77;936805;-74
2021/03/09 04:37:12;;;;;;;23.23;16.60;;;;;;;4.39;100.00;102205.14;1816312;77;938606;-77
2021/03/09 04:39:43;;;;;;;22.90;16.37;;;;;;;4.27;100.00;102204.60;1828380;77;936752;-77
2021/03/09 04:42:13;;;;;;;24.87;16.20;;;;;;;4.22;100.00;102201.11;1816207;77;938594;-77
2021/03/09 04:44:44;;;;;;;22.00;15.57;;;;;;;4.02;100.00;102207.12;1828551;77;936749;-76
2021/03/09 04:47:14;;;;;;;24.12;17.15;;;;;;;3.85;100.00;102209.37;1816292;77;938761;-74
2021/03/09 04:49:44;;;;;;;25.40;16.77;;;;;;;4.14;100.00;102206.81;1828373;77;936645;-75
2021/03/09 04:52:14;;;;;;;23.53;15.73;;;;;;;4.11;100.00;102203.94;1828389;77;938840;-77
2021/03/09 04:54:44;;;;;;;24.27;17.23;;;;;;;3.87;100.00;102207.81;1828281;77;936615;-77
2021/03/09 04:57:14;;;;;;;23.70;16.33;;;;;;;3.87;100.00;102210.56;1828133;77;938627;-77
2021/03/09 04:59:44;;;;;;;27.83;17.40;;;;;;;3.74;100.00;102212.75;1828279;77;936941;-76
2021/03/09 05:02:14;;;;;;;22.65;16.25;;;;;;;3.77;100.00;102220.56;1803851;76;938885;-77
2021/03/09 05:04:43;;;;;;;24.03;17.57;;;;;;;3.82;100.00;102229.56;1828339;77;936659;-75
2021/03/09 05:07:13;;;;;;;24.23;16.73;;;;;;;3.61;100.00;102222.31;1815894;77;937933;-75
2021/03/09 05:09:43;;;;;;;23.47;16.87;;;;;;;3.64;100.00;102219.15;1828362;77;936618;-75
2021/03/09 05:12:13;;;;;;;24.20;16.93;;;;;;;3.65;100.00;102221.70;1816190;77;938786;-76
2021/03/09 05:14:43;;;;;;;27.43;17.73;;;;;;;3.67;100.00;102222.88;1828380;77;936677;-76
2021/03/09 05:17:13;;;;;;;29.27;17.45;;;;;;;3.57;100.00;102231.50;1816174;77;938640;-76
2021/03/09 05:19:43;;;;;;;24.43;18.40;;;;;;;3.52;100.00;102229.89;1828468;77;936681;-75
2021/03/09 05:22:13;;;;;;;27.13;18.47;;;;;;;3.46;100.00;102223.86;1816354;76;938033;-75
2021/03/09 05:24:42;;;;;;;26.93;18.30;;;;;;;3.43;100.00;102227.00;1828365;77;936732;-75
2021/03/09 05:27:12;;;;;;;23.87;17.50;;;;;;;3.39;100.00;102227.09;1816174;77;938640;-75
2021/03/09 05:29:42;;;;;;;24.70;17.50;;;;;;;3.32;100.00;102222.62;1828234;77;936849;-76
2021/03/09 05:32:12;;;;;;;24.33;17.83;;;;;;;3.33;100.00;102218.31;1816239;77;937553;-76
2021/03/09 05:34:42;;;;;;;27.50;19.47;;;;;;;3.24;100.00;102222.80;1828427;77;936864;-76
2021/03/09 05:37:13;;;;;;;25.73;18.07;;;;;;;3.31;100.00;102223.14;1816225;77;938698;-75
2021/03/09 05:39:44;;;;;;;24.40;18.20;;;;;;;3.34;100.00;102219.16;1828259;77;936806;-76
2021/03/09 05:42:15;;;;;;;26.02;18.07;;;;;;;3.13;100.00;102221.45;1814729;77;1044831;-75
2021/03/09 05:44:46;;;;;;;29.93;18.67;;;;;;;3.09;100.00;102225.66;1794317;79;938907;-76
2021/03/09 05:47:16;;;;;;;25.50;18.20;;;;;;;3.16;100.00;102223.30;1794366;79;938865;-76
2021/03/09 05:49:49;;;;;;;28.83;17.80;;;;;;;3.12;100.00;102226.09;1794362;79;936933;-75
2021/03/09 05:52:20;;;;;;;26.10;18.00;;;;;;;3.07;100.00;102221.77;1794200;79;938661;-76
2021/03/09 05:54:50;;;;;;;25.95;18.67;;;;;;;3.07;100.00;102220.39;1782388;79;937918;-77
2021/03/09 05:57:20;;;;;;;27.53;17.77;;;;;;;3.02;100.00;102220.66;1793871;79;938747;-75
2021/03/09 05:59:51;;;;;;;26.17;17.87;;;;;;;3.05;100.00;102212.87;1785894;79;937535;-76
2021/03/09 06:02:21;;;;;;;25.82;18.77;;;;;;;3.12;100.00;102222.53;1813747;76;938894;-76
2021/03/09 06:04:51;;;;;;;28.43;18.67;;;;;;;3.23;100.00;102226.59;1816137;77;938693;-76
2021/03/09 06:07:22;;;;;;;30.50;20.17;;;;;;;3.00;100.00;102229.09;1828065;77;938739;-76
2021/03/09 06:09:52;;;;;;;27.70;18.83;;;;;;;2.99;100.00;102222.45;1815698;77;937841;-77
2021/03/09 06:12:24;;;;;;;25.10;18.63;;;;;;;3.11;100.00;102221.68;1827923;77;938665;-76
2021/03/09 06:15:02;;;;;;;27.52;19.17;;;;;;;3.10;100.00;102231.48;1816193;77;938567;-76
2021/03/09 06:17:37;;;;;;;29.70;20.00;;;;;;;3.05;100.00;102236.72;1828216;77;938620;-76
2021/03/09 06:20:11;;;;;;;27.62;19.32;;;;;;;3.19;100.00;102244.84;1816299;77;938677;-76
2021/03/09 06:22:43;;;;;;;29.63;19.13;;;;;;;3.24;100.00;102231.88;1826613;76;936790;-76
2021/03/09 06:25:15;;;;;;;26.68;19.15;;;;;;;3.11;100.00;102234.55;1816017;77;937631;-76
2021/03/09 06:27:46;;;;;;;29.20;18.93;;;;;;;3.03;100.00;102238.31;1828426;77;936750;-75
2021/03/09 06:30:28;;;;;;;27.07;18.47;;;;;;;2.95;100.00;102240.37;1828342;77;938643;-76
2021/03/09 06:32:57;;;;;;;24.63;17.55;;;;;;;2.90;100.00;102240.97;1816079;77;938599;-75
2021/03/09 06:35:33;;;;;;;25.40;18.07;;;;;;;2.89;100.00;102245.28;1828289;77;938853;-75
2021/03/09 06:38:23;;;;;;;28.57;19.87;;;;;;;2.95;100.00;102244.48;1816278;77;938519;-75
2021/03/09 06:41:14;;;;;;;27.80;18.87;;;;;;;3.04;100.00;102251.48;1816322;77;937776;-75
2021/03/09 06:43:46;;;;;;;27.87;18.97;;;;;;;3.05;100.00;102255.94;1828226;77;936788;-75
2021/03/09 06:46:18;;;;;;;28.70;18.73;;;;;;;2.99;100.00;102248.00;1828155;77;938674;-75
2021/03/09 06:48:51;;;;;;;24.30;17.87;;;;;;;2.91;100.00;102244.57;1828323;77;936836;-75
2021/03/09 06:51:29;;;;;;;26.60;19.37;;;;;;;2.89;100.00;102239.79;1828445;77;938552;-75
2021/03/09 06:54:04;;;;;;;26.42;16.85;;;;;;;2.93;100.00;102246.58;1816257;77;938845;-74
2021/03/09 06:56:36;;;;;;;25.60;18.80;;;;;;;2.85;100.00;102246.21;1828292;77;938676;-75
2021/03/09 06:59:26;;;;;;;22.82;17.05;;;;;;;2.89;100.00;102242.02;1816023;77;938711;-77
2021/03/09 07:02:08;;;;;;;29.02;18.35;;;;;;;2.84;100.00;102247.25;1815979;76;938932;-75
2021/03/09 07:04:39;;;;;;;28.52;18.67;;;;;;;2.91;100.00;102249.50;1828177;77;937014;-74
2021/03/09 07:07:11;;;;;;;28.10;19.43;;;;;;;3.04;100.00;102262.47;1816018;77;938628;-75
2021/03/09 07:09:43;;;;;;;26.60;19.20;;;;;;;3.16;100.00;102267.23;1828343;77;936855;-75
2021/03/09 07:12:15;;;;;;;27.23;18.43;;;;;;;3.26;100.00;102269.58;1814295;77;938175;-75
2021/03/09 07:14:46;;;;;;;33.00;19.30;;;;;;;3.38;100.00;102269.33;1828416;77;936858;-75
2021/03/09 07:17:18;;;;;;;27.10;19.90;;;;;;;3.46;100.00;102264.22;1828184;77;938696;-75
2021/03/09 07:19:49;;;;;;;29.33;20.67;;;;;;;3.59;100.00;102265.65;1828400;77;936714;-75
2021/03/09 07:22:20;;;;;;;27.73;20.60;;;;;;;3.87;100.00;102274.63;1828399;77;938796;-74
2021/03/09 07:25:12;;;;;;;29.20;20.33;;;;;;;4.17;100.00;102275.13;1814316;76;938829;-75
2021/03/09 07:27:46;;;;;;;26.70;19.90;;;;;;;4.33;100.00;102270.61;1788120;79;937048;-76
2021/03/09 07:30:19;;;;;;;28.17;19.53;;;;;;;4.39;100.00;102257.41;1788523;79;938807;-77
2021/03/09 07:32:51;;;;;;;27.87;19.63;;;;;;;4.52;100.00;102252.44;1788991;79;936712;-75
2021/03/09 07:35:22;;;;;;;29.57;19.90;;;;;;;4.60;100.00;102248.09;1763062;80;938712;-75
2021/03/09 07:37:53;;;;;;;26.73;18.23;;;;;;;4.70;100.00;102247.68;1776573;77;938589;-75
2021/03/09 07:40:25;;;;;;;27.07;19.53;;;;;;;4.90;100.00;102241.61;1788260;79;938697;-76
2021/03/09 07:42:56;;;;;;;24.77;18.23;;;;;;;5.07;100.00;102238.73;1776885;79;938590;-75
2021/03/09 07:45:29;;;;;;;28.07;18.17;;;;;;;5.08;100.00;102232.16;1788622;79;938726;-74
2021/03/09 07:48:02;;;;;;;26.75;18.65;;;;;;;5.12;100.00;102233.42;1751450;79;938677;-75
2021/03/09 07:50:35;;;;;;;29.03;19.83;;;;;;;5.19;100.00;102239.75;1788202;79;938764;-75
2021/03/09 07:53:15;;;;;;;26.10;18.50;;;;;;;5.26;100.00;102237.00;1776763;79;937846;-75
2021/03/09 07:55:46;;;;;;;22.93;16.73;;;;;;;5.33;100.00;102238.66;1788769;79;936801;-76
2021/03/09 07:58:21;;;;;;;26.07;17.27;;;;;;;5.38;100.00;102233.36;1788609;79;938791;-74
2021/03/09 08:00:57;;;;;;;22.77;16.23;;;;;;;5.46;100.00;102237.24;1751725;80;938805;-75
2021/03/09 08:03:30;;;;;;;23.80;16.90;;;;;;;5.44;100.00;102226.95;1788340;77;938602;-73
2021/03/09 08:06:01;;;;;;;21.53;15.73;;;;;;;5.45;100.00;102224.52;1776626;79;938691;-75
2021/03/09 08:08:45;;;;;;;20.50;15.33;;;;;;;5.58;100.00;102225.00;1788532;79;938602;-75
2021/03/09 08:11:37;;;;;;;19.00;15.67;;;;;;;5.52;100.00;102223.09;1788694;79;938690;-75
2021/03/09 08:14:32;;;;;;;19.20;14.75;;;;;;;5.57;100.00;102215.03;1751490;80;938914;-75
2021/03/09 08:17:05;;;;;;;19.40;14.55;;;;;;;5.70;100.00;102212.73;1774941;78;938653;-75
2021/03/09 08:19:45;;;;;;;20.70;15.20;;;;;;;5.69;100.00;102206.94;1781974;77;936809;-75
2021/03/09 08:22:15;;;;;;;18.53;14.03;;;;;;;5.64;100.00;102206.22;1788269;79;938642;-74
2021/03/09 08:24:58;;;;;;;21.13;14.83;;;;;;;5.73;100.00;102206.28;1788590;79;936755;-74
2021/03/09 08:27:42;;;;;;;17.40;13.80;;;;;;;5.86;100.00;102194.33;1788580;79;938726;-75
2021/03/09 08:30:42;;;;;;;20.70;14.80;;;;;;;5.66;100.00;102193.57;1751360;79;938646;-75
2021/03/09 08:33:25;;;;;;;19.93;14.10;;;;;;;5.77;100.00;102195.13;1776688;77;938615;-75
2021/03/09 08:35:56;;;;;;;20.88;13.83;;;;;;;5.80;100.00;102189.69;1776675;77;938824;-75
2021/03/09 08:38:26;;;;;;;16.77;13.23;;;;;;;5.99;100.00;102194.81;1788321;79;938881;-75
2021/03/09 08:41:02;;;;;;;17.82;13.50;;;;;;;6.36;100.00;102178.18;1777043;79;938608;-74
2021/03/09 08:43:32;;;;;;;18.60;13.43;;;;;;;6.47;100.00;102181.27;1796733;77;938662;-74
2021/03/09 08:46:04;;;;;;;24.65;14.75;;;;;;;6.60;100.00;102175.09;1813064;77;938609;-75
2021/03/09 08:48:55;;;;;;;17.90;12.90;;;;;;;6.49;100.00;102171.70;1824824;77;938944;-75
2021/03/09 08:51:44;;;;;;;17.70;12.67;;;;;;;6.83;100.00;102179.44;1824886;77;938579;-75
2021/03/09 08:54:38;;;;;;;15.87;12.57;;;;;;;6.89;100.00;102179.61;1825066;77;938838;-75
2021/03/09 08:57:11;;;;;;;16.13;12.13;;;;;;;7.11;100.00;102173.38;1813192;77;938672;-75
2021/03/09 08:59:43;;;;;;;18.87;12.30;;;;;;;7.41;100.00;102174.83;1825004;77;937092;-75
2021/03/09 09:02:15;;;;;;;17.00;11.90;;;;;;;7.14;100.00;102171.56;1812817;76;938943;-75
2021/03/09 09:04:47;;;;;;;17.00;12.97;;;;;;;7.36;100.00;102168.33;1825115;77;936841;-74
2021/03/09 09:07:26;;;;;;;16.33;11.20;;;;;;;7.37;100.00;102160.31;1825158;77;938910;-75
2021/03/09 09:09:58;;;;;;;14.13;12.00;;;;;;;7.41;100.00;102160.16;1812925;77;938817;-75
2021/03/09 09:12:31;;;;;;;15.73;11.90;;;;;;;7.40;100.00;102166.25;1825093;77;938688;-75
2021/03/09 09:15:15;;;;;;;14.70;11.20;;;;;;;7.33;100.00;102160.80;1814179;77;938674;-76
2021/03/09 09:17:49;;;;;;;13.83;10.50;;;;;;;7.38;100.00;102163.40;1771286;78;936932;-75
2021/03/09 09:20:31;;;;;;;13.63;11.07;;;;;;;7.52;100.00;102164.39;1788620;79;938757;-75
2021/03/09 09:23:10;;;;;;;16.73;11.60;;;;;;;7.75;100.00;102163.62;1775416;79;938770;-75
2021/03/09 09:25:42;;;;;;;13.47;10.30;;;;;;;7.67;100.00;102163.42;1788306;79;937051;-75
2021/03/09 09:28:22;;;;;;;15.27;11.93;;;;;;;8.13;100.00;102153.04;1776827;77;938626;-75
2021/03/09 09:30:53;;;;;;;13.23;11.47;;;;;;;8.15;100.00;102143.97;1756989;79;938839;-75
2021/03/09 09:33:25;;;;;;;16.87;11.43;;;;;;;8.05;100.00;102142.31;1825205;77;938754;-74
2021/03/09 09:35:55;;;;;;;13.93;10.88;;;;;;;8.26;100.00;102145.63;1813137;77;938794;-74
2021/03/09 09:38:25;;;;;;;13.73;10.57;;;;;;;8.28;100.00;102142.91;1825098;77;938616;-75
2021/03/09 09:41:00;;;;;;;15.10;10.32;;;;;;;8.39;100.00;102147.64;1813215;77;938684;-74
2021/03/09 09:43:32;;;;;;;15.43;10.03;;;;;;;8.53;100.00;102144.11;1825290;77;938693;-75
2021/03/09 09:46:05;;;;;;;12.03;9.40;;;;;;;8.46;100.00;102136.47;1813147;77;938899;-74
2021/03/09 09:48:37;;;;;;;11.57;9.87;;;;;;;8.38;100.00;102136.29;1825142;77;934782;-73
2021/03/09 09:51:11;;;;;;;12.33;8.00;;;;;;;8.76;100.00;102136.34;1813210;77;936493;-73
2021/03/09 09:53:43;;;;;;;12.00;7.60;;;;;;;8.79;100.00;102137.23;1824987;77;934827;-73
2021/03/09 09:56:15;;;;;;;7.73;5.80;;;;;;;8.75;100.00;102127.72;1813054;77;936578;-74
2021/03/09 09:58:48;;;;;;;6.97;5.93;;;;;;;8.81;100.00;102127.62;1824839;76;932672;-74
2021/03/09 10:01:20;;;;;;;6.97;5.40;;;;;;;8.65;100.00;102114.47;1825106;77;934494;-74
2021/03/09 10:03:55;;;;;;;6.80;5.90;;;;;;;8.96;100.00;102118.24;1812964;76;934552;-75
2021/03/09 10:06:26;;;;;;;6.97;5.63;;;;;;;9.02;100.00;102121.44;1825346;77;934457;-74
2021/03/09 10:08:58;;;;;;;6.55;5.60;;;;;;;9.04;100.00;102119.78;1813003;77;934815;-74
2021/03/09 10:11:28;;;;;;;6.50;5.90;;;;;;;9.18;100.00;102116.20;1825300;77;933820;-75
2021/03/09 10:14:06;;;;;;;7.62;6.17;;;;;;;9.18;100.00;102116.20;1812871;77;934621;-75
2021/03/09 10:16:40;;;;;;;6.47;5.50;;;;;;;9.05;100.00;102116.78;1825340;77;932640;-75
2021/03/09 10:19:15;;;;;;;7.90;5.50;;;;;;;9.28;100.00;102115.05;1813254;77;934808;-74
2021/03/09 10:21:44;;;;;;;7.60;5.70;;;;;;;9.39;100.00;102109.99;1824829;77;932727;-74
2021/03/09 10:24:22;;;;;;;9.77;6.00;;;;;;;9.38;100.00;102103.59;1825127;77;934577;-74
2021/03/09 10:26:54;;;;;;;6.70;5.10;;;;;;;9.39;100.00;102110.84;1813044;77;934497;-74
2021/03/09 10:29:26;;;;;;;8.63;5.83;;;;;;;9.55;100.00;102106.42;1803244;77;934755;-74
2021/03/09 10:31:58;;;;;;;5.12;4.62;;;;;;;9.68;100.00;102108.05;1808265;77;934679;-74
2021/03/09 10:34:38;;;;;;;7.50;5.20;;;;;;;9.82;100.00;102108.05;1824807;77;934543;-75
2021/03/09 10:37:09;;;;;;;6.57;5.73;;;;;;;10.10;100.00;102105.21;1813391;77;934578;-74
2021/03/09 10:39:41;;;;;;;7.13;5.23;;;;;;;9.79;100.00;102098.84;1825166;77;934725;-74
2021/03/09 10:42:32;;;;;;;7.57;4.93;;;;;;;9.91;100.00;102101.84;1813373;77;934539;-74
2021/03/09 10:45:19;;;;;;;7.03;5.70;;;;;;;9.92;100.00;102097.98;1813196;77;934604;-73
2021/03/09 10:47:52;;;;;;;8.37;5.80;;;;;;;9.80;100.00;102097.73;1819470;77;934495;-74
2021/03/09 10:50:24;;;;;;;7.70;5.00;;;;;;;9.80;100.00;102082.47;1820993;76;934589;-74
2021/03/09 10:52:55;;;;;;;7.83;5.35;;;;;;;10.13;100.00;102095.55;1813347;77;934393;-74
2021/03/09 10:55:25;;;;;;;6.10;5.10;;;;;;;10.20;100.00;102088.77;1825259;77;936606;-74
2021/03/09 10:57:57;;;;;;;6.93;5.37;;;;;;;10.13;100.00;102077.50;1813237;77;935638;-75
2021/03/09 11:00:27;;;;;;;8.27;5.67;;;;;;;10.22;100.00;102084.36;1825282;77;936460;-73
2021/03/09 11:02:57;;;;;;;7.20;6.28;;;;;;;10.08;100.00;102076.03;1784707;77;936777;-73
2021/03/09 11:05:27;;;;;;;7.00;5.73;;;;;;;10.04;100.00;102078.47;1825150;77;936588;-73
2021/03/09 11:07:56;;;;;;;6.93;5.80;;;;;;;10.03;100.00;102083.18;1813332;77;936491;-75
2021/03/09 11:10:26;;;;;;;8.37;6.53;;;;;;;9.92;100.00;102077.71;1825121;77;936757;-73
2021/03/09 11:12:56;;;;;;;7.70;5.75;;;;;;;9.90;100.00;102073.79;1813293;77;934546;-73
2021/03/09 11:15:26;;;;;;;7.50;6.43;;;;;;;9.96;100.00;102070.56;1825424;77;934838;-73
2021/03/09 11:17:56;;;;;;;7.20;6.47;;;;;;;10.12;100.00;102064.71;1813371;77;934470;-73
2021/03/09 11:20:26;;;;;;;8.50;6.17;;;;;;;10.17;100.00;102054.57;1825094;77;936579;-74
2021/03/09 11:22:56;;;;;;;7.17;6.07;;;;;;;10.10;100.00;102053.03;1813158;77;936780;-73
2021/03/09 11:25:27;;;;;;;7.77;6.20;;;;;;;10.02;100.00;102044.56;1825232;77;936620;-73
2021/03/09 11:27:57;;;;;;;7.55;6.50;;;;;;;9.97;100.00;102039.77;1813173;77;946571;-74
2021/03/09 11:30:28;;;;;;;10.30;6.37;;;;;;;10.04;100.00;102041.84;1825039;77;934820;-72